createdAt,value
2017-07-25T00:02:19.581Z,2.40
2017-07-25T00:04:49.326Z,2.15
2017-07-25T00:07:19.049Z,2.22
2017-07-25T00:09:48.783Z,2.10
2017-07-25T00:12:18.511Z,2.33
2017-07-25T00:14:48.235Z,2.85
2017-07-25T00:17:18.003Z,2.47
2017-07-25T00:19:47.720Z,3.28
2017-07-25T00:22:17.440Z,3.47
2017-07-25T00:24:47.186Z,2.80
2017-07-25T00:27:16.914Z,4.07
2017-07-25T00:29:46.653Z,3.53
2017-07-25T00:32:16.233Z,3.65
2017-07-25T00:34:45.977Z,3.12
2017-07-25T00:37:15.711Z,3.35
2017-07-25T00:39:45.444Z,3.70
2017-07-25T00:42:15.194Z,3.78
2017-07-25T00:44:44.933Z,3.83
2017-07-25T00:47:14.659Z,4.40
2017-07-25T00:49:44.384Z,3.60
2017-07-25T00:52:14.157Z,3.78
2017-07-25T00:54:43.911Z,4.15
2017-07-25T00:57:13.638Z,4.43
2017-07-25T00:59:43.391Z,4.72
2017-07-25T01:02:13.116Z,3.97
2017-07-25T01:04:42.848Z,4.80
2017-07-25T01:07:12.429Z,3.90
2017-07-25T01:09:42.139Z,3.58
2017-07-25T01:12:11.864Z,3.70
2017-07-25T01:14:41.599Z,4.15
2017-07-25T01:17:11.157Z,3.80
2017-07-25T01:19:40.885Z,3.58
2017-07-25T01:22:10.621Z,3.95
2017-07-25T01:24:40.333Z,4.28
2017-07-25T01:27:10.072Z,3.90
2017-07-25T01:29:39.792Z,3.90
2017-07-25T01:32:09.529Z,3.33
2017-07-25T01:34:39.280Z,3.00
2017-07-25T01:37:09.005Z,3.05
2017-07-25T01:39:38.741Z,4.03
2017-07-25T01:42:08.473Z,3.62
2017-07-25T01:44:38.211Z,3.60
2017-07-25T01:47:08.628Z,3.65
2017-07-25T01:49:38.372Z,3.22
2017-07-25T01:52:08.123Z,3.55
2017-07-25T01:54:37.876Z,3.33
2017-07-25T01:57:08.300Z,3.45
2017-07-25T01:59:38.013Z,3.10
2017-07-25T02:02:07.744Z,3.35
2017-07-25T02:04:37.319Z,3.80
2017-07-25T02:07:07.052Z,3.10
2017-07-25T02:09:36.778Z,2.60
2017-07-25T02:12:06.536Z,3.33
2017-07-25T02:14:36.293Z,3.70
2017-07-25T02:17:06.022Z,3.00
2017-07-25T02:19:35.751Z,2.80
2017-07-25T02:22:05.479Z,3.58
2017-07-25T02:24:35.225Z,3.83
2017-07-25T02:27:04.985Z,3.70
2017-07-25T02:29:34.538Z,3.40
2017-07-25T02:32:04.289Z,2.95
2017-07-25T02:34:34.020Z,3.20
2017-07-25T02:37:03.738Z,3.50
2017-07-25T02:39:33.526Z,3.67
2017-07-25T02:42:03.241Z,3.22
2017-07-25T02:44:32.978Z,3.47
2017-07-25T02:47:02.710Z,3.50
2017-07-25T02:49:32.426Z,4.30
2017-07-25T02:52:02.164Z,3.50
2017-07-25T02:54:31.895Z,3.97
2017-07-25T02:57:01.625Z,3.78
2017-07-25T02:59:31.382Z,4.82
2017-07-25T03:02:01.097Z,3.78
2017-07-25T03:04:30.815Z,3.60
2017-07-25T03:07:00.560Z,3.65
2017-07-25T03:09:30.272Z,4.70
2017-07-25T03:12:00.004Z,3.97
2017-07-25T03:14:29.729Z,3.90
2017-07-25T03:16:59.469Z,4.18
2017-07-25T03:19:29.201Z,3.45
2017-07-25T03:21:58.940Z,4.85
2017-07-25T03:24:28.680Z,4.25
2017-07-25T03:26:58.434Z,5.25
2017-07-25T03:29:28.156Z,4.60
2017-07-25T03:31:57.710Z,4.60
2017-07-25T03:34:27.252Z,4.60
2017-07-25T03:36:56.991Z,5.35
2017-07-25T03:39:26.717Z,5.80
2017-07-25T03:41:56.449Z,4.70
2017-07-25T03:44:26.195Z,5.25
2017-07-25T03:46:55.917Z,4.87
2017-07-25T03:49:25.650Z,6.03
2017-07-25T03:51:55.356Z,5.40
2017-07-25T03:54:25.083Z,4.97
2017-07-25T03:56:54.812Z,4.50
2017-07-25T03:59:24.532Z,5.40
2017-07-25T04:01:54.275Z,4.53
2017-07-25T04:04:23.999Z,5.37
2017-07-25T04:06:53.734Z,4.82
2017-07-25T04:09:23.468Z,4.57
2017-07-25T04:11:53.190Z,4.75
2017-07-25T04:14:22.911Z,5.05
2017-07-25T04:16:52.645Z,5.00
2017-07-25T04:19:22.392Z,4.45
2017-07-25T04:21:52.168Z,4.35
2017-07-25T04:24:21.901Z,4.35
2017-07-25T04:26:51.613Z,4.28
2017-07-25T04:29:21.342Z,3.83
2017-07-25T04:31:51.068Z,3.75
2017-07-25T04:34:20.824Z,3.75
2017-07-25T04:36:50.554Z,3.55
2017-07-25T04:39:20.270Z,3.70
2017-07-25T04:41:50.010Z,3.30
2017-07-25T04:44:19.927Z,3.40
2017-07-25T04:46:49.664Z,3.30
2017-07-25T04:49:19.516Z,3.35
2017-07-25T04:51:49.369Z,3.00
2017-07-25T04:54:19.268Z,3.30
2017-07-25T04:56:48.972Z,3.58
2017-07-25T04:59:18.697Z,3.47
2017-07-25T05:01:48.436Z,3.03
2017-07-25T05:04:18.172Z,2.85
2017-07-25T05:06:47.900Z,2.65
2017-07-25T05:09:17.639Z,3.20
2017-07-25T05:11:47.949Z,3.10
2017-07-25T05:14:17.661Z,3.10
2017-07-25T05:16:47.406Z,3.00
2017-07-25T05:19:17.145Z,2.67
2017-07-25T05:21:46.916Z,3.25
2017-07-25T05:24:16.662Z,2.58
2017-07-25T05:26:46.388Z,2.65
2017-07-25T05:29:15.937Z,2.60
2017-07-25T05:31:45.700Z,2.60
2017-07-25T05:34:15.417Z,2.92
2017-07-25T05:36:45.152Z,2.50
2017-07-25T05:39:14.886Z,2.95
2017-07-25T05:41:44.613Z,2.95
2017-07-25T05:44:14.350Z,2.50
2017-07-25T05:46:44.065Z,2.87
2017-07-25T05:49:13.801Z,2.90
2017-07-25T05:51:43.538Z,3.03
2017-07-25T05:54:13.272Z,2.20
2017-07-25T05:56:43.003Z,2.80
2017-07-25T05:59:12.746Z,2.20
2017-07-25T06:01:43.181Z,3.12
2017-07-25T06:04:12.912Z,3.17
2017-07-25T06:06:42.624Z,2.62
2017-07-25T06:09:12.362Z,2.87
2017-07-25T06:11:42.100Z,2.60
2017-07-25T06:14:11.824Z,3.50
2017-07-25T06:16:41.558Z,2.22
2017-07-25T06:19:11.284Z,2.80
2017-07-25T06:21:41.048Z,2.87
2017-07-25T06:24:10.781Z,2.75
2017-07-25T06:26:40.505Z,2.67
2017-07-25T06:29:10.241Z,3.20
2017-07-25T06:31:39.977Z,2.70
2017-07-25T06:34:09.727Z,2.92
2017-07-25T06:36:39.444Z,2.60
2017-07-25T06:39:09.184Z,3.53
2017-07-25T06:41:38.921Z,2.72
2017-07-25T06:44:08.696Z,3.20
2017-07-25T06:46:38.413Z,2.92
2017-07-25T06:49:09.613Z,3.35
2017-07-25T06:51:39.332Z,3.33
2017-07-25T06:54:09.065Z,3.03
2017-07-25T06:56:38.813Z,2.90
2017-07-25T06:59:08.541Z,3.10
2017-07-25T07:01:38.273Z,3.85
2017-07-25T07:04:07.996Z,4.03
2017-07-25T07:06:37.736Z,3.95
2017-07-25T07:09:07.469Z,3.30
2017-07-25T07:11:37.208Z,3.87
2017-07-25T07:14:06.944Z,3.60
2017-07-25T07:16:36.685Z,3.75
2017-07-25T07:19:06.417Z,4.07
2017-07-25T07:21:36.161Z,3.90
2017-07-25T07:24:05.882Z,4.00
2017-07-25T07:26:35.618Z,3.40
2017-07-25T07:29:05.441Z,4.03
2017-07-25T07:31:35.149Z,3.70
2017-07-25T07:34:04.877Z,3.58
2017-07-25T07:36:34.612Z,3.90
2017-07-25T07:39:03.593Z,3.55
2017-07-25T07:41:33.332Z,3.62
2017-07-25T07:44:03.076Z,2.30
2017-07-25T07:46:32.803Z,3.00
2017-07-25T07:49:02.533Z,3.30
2017-07-25T07:51:32.067Z,2.60
2017-07-25T07:54:01.653Z,3.12
2017-07-25T07:56:31.173Z,2.60
2017-07-25T07:59:00.727Z,3.35
2017-07-25T08:01:30.496Z,2.53
2017-07-25T08:04:00.237Z,2.40
2017-07-25T08:06:29.969Z,2.20
2017-07-25T08:08:59.709Z,2.37
2017-07-25T08:11:29.440Z,2.30
2017-07-25T08:14:00.049Z,1.98
2017-07-25T08:16:29.802Z,2.50
2017-07-25T08:18:59.242Z,1.90
2017-07-25T08:21:28.672Z,1.87
2017-07-25T08:23:58.110Z,2.07
2017-07-25T08:26:27.858Z,2.30
2017-07-25T08:28:57.291Z,1.93
2017-07-25T08:31:26.800Z,1.80
2017-07-25T08:33:56.231Z,1.53
2017-07-25T08:36:25.964Z,1.70
2017-07-25T08:38:55.410Z,1.93
2017-07-25T08:41:24.847Z,1.67
2017-07-25T08:43:54.585Z,1.83
2017-07-25T08:46:24.024Z,1.57
2017-07-25T08:48:53.467Z,1.70
2017-07-25T08:51:22.934Z,1.60
2017-07-25T08:53:52.377Z,1.53
2017-07-25T08:56:21.828Z,1.60
2017-07-25T08:58:51.258Z,1.53
2017-07-25T09:01:20.705Z,1.27
2017-07-25T09:03:50.148Z,1.30
2017-07-25T09:06:19.593Z,1.37
2017-07-25T09:08:49.027Z,1.30
2017-07-25T09:11:18.476Z,1.40
2017-07-25T09:13:47.932Z,1.30
2017-07-25T09:16:17.373Z,1.13
2017-07-25T09:18:46.830Z,1.47
2017-07-25T09:21:16.300Z,1.30
2017-07-25T09:23:53.225Z,1.50
2017-07-25T09:26:22.692Z,1.50
2017-07-25T09:28:52.140Z,1.30
2017-07-25T09:31:21.593Z,1.20
2017-07-25T09:33:51.027Z,1.20
2017-07-25T09:36:20.473Z,1.30
2017-07-25T09:38:49.913Z,1.43
2017-07-25T09:41:19.369Z,1.40
2017-07-25T09:43:48.801Z,1.53
2017-07-25T09:46:18.293Z,1.40
2017-07-25T09:48:47.758Z,1.33
2017-07-25T09:51:17.208Z,1.60
2017-07-25T09:53:46.642Z,1.10
2017-07-25T09:56:16.095Z,1.40
2017-07-25T09:58:45.534Z,1.40
2017-07-25T10:01:15.005Z,1.60
2017-07-25T10:03:44.476Z,1.50
2017-07-25T10:06:13.558Z,1.50
2017-07-25T10:08:42.988Z,1.43
2017-07-25T10:11:12.433Z,1.83
2017-07-25T10:13:41.877Z,1.50
2017-07-25T10:16:11.308Z,1.47
2017-07-25T10:18:40.950Z,1.90
2017-07-25T10:21:10.384Z,1.50
2017-07-25T10:23:39.820Z,1.87
2017-07-25T10:26:09.269Z,1.87
2017-07-25T10:28:38.733Z,1.53
2017-07-25T10:31:08.166Z,1.50
2017-07-25T10:33:37.621Z,1.73
2017-07-25T10:36:07.092Z,1.90
2017-07-25T10:38:36.529Z,2.23
2017-07-25T10:41:05.998Z,1.70
2017-07-25T10:43:35.451Z,1.73
2017-07-25T10:46:04.916Z,1.87
2017-07-25T10:48:34.345Z,1.90
2017-07-25T10:51:03.807Z,1.80
2017-07-25T10:53:33.252Z,1.90
2017-07-25T10:56:02.701Z,2.10
2017-07-25T10:58:32.141Z,1.83
2017-07-25T11:01:02.258Z,2.07
2017-07-25T11:03:31.722Z,2.23
2017-07-25T11:06:01.161Z,1.90
2017-07-25T11:08:30.601Z,1.97
2017-07-25T11:11:00.049Z,2.27
2017-07-25T11:13:29.480Z,1.97
2017-07-25T11:15:58.936Z,1.97
2017-07-25T11:18:28.355Z,2.20
2017-07-25T11:20:57.572Z,1.70
2017-07-25T11:23:27.022Z,1.93
2017-07-25T11:25:56.490Z,1.93
2017-07-25T11:28:26.401Z,1.83
2017-07-25T11:30:55.852Z,1.83
2017-07-25T11:33:25.297Z,2.00
2017-07-25T11:35:54.757Z,1.97
2017-07-25T11:38:24.481Z,1.97
2017-07-25T11:40:53.918Z,1.53
2017-07-25T11:43:23.353Z,2.20
2017-07-25T11:45:52.808Z,2.40
2017-07-25T11:48:22.253Z,2.30
2017-07-25T11:50:51.684Z,1.93
2017-07-25T11:53:21.142Z,2.10
2017-07-25T11:55:50.531Z,2.33
2017-07-25T11:58:19.972Z,2.33
2017-07-25T12:00:49.415Z,2.10
2017-07-25T12:03:18.864Z,1.93
2017-07-25T12:05:48.340Z,1.87
2017-07-25T12:08:17.794Z,2.13
2017-07-25T12:10:47.264Z,2.43
2017-07-25T12:13:16.703Z,2.10
2017-07-25T12:15:46.144Z,2.23
2017-07-25T12:18:15.596Z,1.90
2017-07-25T12:20:56.192Z,1.90
2017-07-25T12:23:25.280Z,1.87
2017-07-25T12:25:54.735Z,2.00
2017-07-25T12:28:24.189Z,1.70
2017-07-25T12:30:53.633Z,1.83
2017-07-25T12:33:23.078Z,2.00
2017-07-25T12:35:52.554Z,1.80
2017-07-25T12:38:21.999Z,2.50
2017-07-25T12:40:51.439Z,2.00
2017-07-25T12:43:20.901Z,1.80
2017-07-25T12:45:50.340Z,2.03
2017-07-25T12:48:19.783Z,1.70
2017-07-25T12:50:49.237Z,1.60
2017-07-25T12:53:18.755Z,1.87
2017-07-25T12:55:48.195Z,2.03
2017-07-25T12:58:17.648Z,1.90
2017-07-25T13:01:13.017Z,2.20
2017-07-25T13:03:42.329Z,1.87
2017-07-25T13:06:11.296Z,1.80
2017-07-25T13:08:40.741Z,1.90
2017-07-25T13:11:10.197Z,2.13
2017-07-25T13:13:39.637Z,2.00
2017-07-25T13:16:09.073Z,2.03
2017-07-25T13:18:38.545Z,1.90
2017-07-25T13:21:07.993Z,1.87
2017-07-25T13:23:37.449Z,1.80
2017-07-25T13:26:06.917Z,1.90
2017-07-25T13:28:36.374Z,1.80
2017-07-25T13:31:05.816Z,1.60
2017-07-25T13:33:35.261Z,2.00
2017-07-25T13:36:04.742Z,2.30
2017-07-25T13:38:34.203Z,2.40
2017-07-25T13:41:03.655Z,2.33
2017-07-25T13:43:33.113Z,2.87
2017-07-25T13:46:02.540Z,2.87
2017-07-25T13:48:31.989Z,3.00
2017-07-25T13:51:01.416Z,3.03
2017-07-25T13:53:30.900Z,3.40
2017-07-25T13:56:00.349Z,3.53
2017-07-25T13:58:30.532Z,2.80
2017-07-25T14:00:59.973Z,3.27
2017-07-25T14:03:29.442Z,3.40
2017-07-25T14:05:58.910Z,3.63
2017-07-25T14:08:28.368Z,3.30
2017-07-25T14:10:57.813Z,3.40
2017-07-25T14:13:27.289Z,3.20
2017-07-25T14:15:56.735Z,3.30
2017-07-25T14:18:26.183Z,2.90
2017-07-25T14:20:55.629Z,2.17
2017-07-25T14:23:25.161Z,2.10
2017-07-25T14:25:54.594Z,1.70
2017-07-25T14:28:24.009Z,1.30
2017-07-25T14:30:53.544Z,1.10
2017-07-25T14:33:22.978Z,1.27
2017-07-25T14:35:52.409Z,1.17
2017-07-25T14:38:21.868Z,1.10
2017-07-25T14:40:51.316Z,1.10
2017-07-25T14:43:20.774Z,1.03
2017-07-25T14:45:50.237Z,1.40
2017-07-25T14:48:19.677Z,1.13
2017-07-25T14:50:49.120Z,1.03
2017-07-25T14:53:18.608Z,0.90
2017-07-25T14:55:48.048Z,1.03
2017-07-25T14:58:17.505Z,1.40
2017-07-25T15:00:46.977Z,1.10
2017-07-25T15:03:16.416Z,0.90
2017-07-25T15:05:45.861Z,1.30
2017-07-25T15:08:15.321Z,1.20
2017-07-25T15:10:44.904Z,1.03
2017-07-25T15:13:14.601Z,1.17
2017-07-25T15:15:45.089Z,1.20
2017-07-25T15:18:15.207Z,0.97
2017-07-25T15:20:45.029Z,1.00
2017-07-25T15:23:15.240Z,1.07
2017-07-25T15:25:45.467Z,1.00
2017-07-25T15:28:14.910Z,0.93
2017-07-25T15:30:45.812Z,1.00
2017-07-25T15:33:15.405Z,1.20
2017-07-25T15:35:45.663Z,1.00
2017-07-25T15:38:15.436Z,0.80
2017-07-25T15:40:45.578Z,0.80
2017-07-25T15:43:15.764Z,0.80
2017-07-25T15:45:45.313Z,0.93
2017-07-25T15:48:15.221Z,1.07
2017-07-25T15:50:45.352Z,1.00
2017-07-25T15:53:16.089Z,0.97
2017-07-25T15:55:45.627Z,1.03
2017-07-25T15:58:15.607Z,1.10
2017-07-25T16:00:45.096Z,1.07
2017-07-25T16:03:14.848Z,1.07
2017-07-25T16:05:44.685Z,0.73
2017-07-25T16:08:14.992Z,1.07
2017-07-25T16:10:44.985Z,0.90
2017-07-25T16:13:14.784Z,0.90
2017-07-25T16:15:45.017Z,0.90
2017-07-25T16:18:14.902Z,1.10
2017-07-25T16:20:45.014Z,1.10
2017-07-25T16:23:14.463Z,1.33
2017-07-25T16:25:45.212Z,1.10
2017-07-25T16:28:14.948Z,1.30
2017-07-25T16:30:44.984Z,1.20
2017-07-25T16:33:14.925Z,1.10
2017-07-25T16:35:44.706Z,1.00
2017-07-25T16:38:14.169Z,0.90
2017-07-25T16:40:43.738Z,1.20
2017-07-25T16:43:13.218Z,1.00
2017-07-25T16:45:43.393Z,1.20
2017-07-25T16:48:12.949Z,1.37
2017-07-25T16:50:43.047Z,1.30
2017-07-25T16:53:12.781Z,1.77
2017-07-25T16:55:43.088Z,1.30
2017-07-25T16:58:12.960Z,1.20
2017-07-25T17:00:42.713Z,1.30
2017-07-25T17:03:12.434Z,1.23
2017-07-25T17:05:41.890Z,1.37
2017-07-25T17:08:11.649Z,1.43
2017-07-25T17:10:41.597Z,1.60
2017-07-25T17:13:11.514Z,1.40
2017-07-25T17:15:41.313Z,1.40
2017-07-25T17:18:11.552Z,1.40
2017-07-25T17:20:41.256Z,0.93
2017-07-25T17:23:10.917Z,1.30
2017-07-25T17:25:40.913Z,1.20
2017-07-25T17:28:10.564Z,0.97
2017-07-25T17:30:40.591Z,1.35
2017-07-25T17:33:10.209Z,1.23
2017-07-25T17:35:40.201Z,1.10
2017-07-25T17:38:09.943Z,1.40
2017-07-25T17:40:41.214Z,1.23
2017-07-25T17:43:11.517Z,1.02
2017-07-25T17:45:41.461Z,1.10
2017-07-25T17:48:11.583Z,1.00
2017-07-25T17:50:42.184Z,1.10
2017-07-25T17:53:11.892Z,1.10
2017-07-25T17:55:42.075Z,1.25
2017-07-25T17:58:11.837Z,1.45
2017-07-25T18:00:41.850Z,1.40
2017-07-25T18:03:12.228Z,1.20
2017-07-25T18:05:42.194Z,1.17
2017-07-25T18:08:12.361Z,1.00
2017-07-25T18:10:42.184Z,0.90
2017-07-25T18:13:12.222Z,1.10
2017-07-25T18:15:42.214Z,1.00
2017-07-25T18:18:12.852Z,0.95
2017-07-25T18:20:42.588Z,1.00
2017-07-25T18:23:12.332Z,1.00
2017-07-25T18:25:42.190Z,0.98
2017-07-25T18:28:12.053Z,1.00
2017-07-25T18:30:42.410Z,1.30
2017-07-25T18:33:12.217Z,1.17
2017-07-25T18:35:41.956Z,1.08
2017-07-25T18:38:11.968Z,1.30
2017-07-25T18:40:41.698Z,1.35
2017-07-25T18:43:11.784Z,1.20
2017-07-25T18:45:41.543Z,1.20
2017-07-25T18:48:11.269Z,1.17
2017-07-25T18:50:41.002Z,1.42
2017-07-25T18:53:10.762Z,1.40
2017-07-25T18:55:41.061Z,1.60
2017-07-25T18:58:10.917Z,1.30
2017-07-25T19:00:40.879Z,1.60
2017-07-25T19:03:10.369Z,1.40
2017-07-25T19:05:40.273Z,1.42
2017-07-25T19:08:10.110Z,1.35
2017-07-25T19:10:40.074Z,1.60
2017-07-25T19:13:09.965Z,1.23
2017-07-25T19:15:40.117Z,1.40
2017-07-25T19:18:10.150Z,1.65
2017-07-25T19:20:40.135Z,1.23
2017-07-25T19:23:10.172Z,1.80
2017-07-25T19:25:40.119Z,1.48
2017-07-25T19:28:10.293Z,1.42
2017-07-25T19:30:40.375Z,1.50
2017-07-25T19:33:10.431Z,1.60
2017-07-25T19:35:40.700Z,1.70
2017-07-25T19:38:10.531Z,1.60
2017-07-25T19:40:40.402Z,1.50
2017-07-25T19:43:10.412Z,1.65
2017-07-25T19:45:40.141Z,1.37
2017-07-25T19:48:09.797Z,1.40
2017-07-25T19:50:39.808Z,1.20
2017-07-25T19:53:09.831Z,1.50
2017-07-25T19:55:39.707Z,1.60
2017-07-25T19:58:09.819Z,1.95
2017-07-25T20:00:39.922Z,1.65
2017-07-25T20:03:09.778Z,1.60
2017-07-25T20:05:39.862Z,1.70
2017-07-25T20:08:09.953Z,1.52
2017-07-25T20:10:40.009Z,1.80
2017-07-25T20:13:10.062Z,1.60
2017-07-25T20:15:39.914Z,1.80
2017-07-25T20:18:09.760Z,1.65
2017-07-25T20:20:39.736Z,1.90
2017-07-25T20:23:09.566Z,1.77
2017-07-25T20:25:39.467Z,1.48
2017-07-25T20:28:09.436Z,1.35
2017-07-25T20:30:39.406Z,1.27
2017-07-25T20:33:09.535Z,1.20
2017-07-25T20:35:39.553Z,1.30
2017-07-25T20:38:09.288Z,1.23
2017-07-25T20:40:39.593Z,1.33
2017-07-25T20:43:09.601Z,1.40
2017-07-25T20:45:40.152Z,1.25
2017-07-25T20:48:10.072Z,1.45
2017-07-25T20:50:40.113Z,1.52
2017-07-25T20:53:10.323Z,1.77
2017-07-25T20:55:40.457Z,1.60
2017-07-25T20:58:10.304Z,1.67
2017-07-25T21:00:40.164Z,1.52
2017-07-25T21:03:10.101Z,1.33
2017-07-25T21:05:40.013Z,1.50
2017-07-25T21:08:10.255Z,1.30
2017-07-25T21:10:40.469Z,1.80
2017-07-25T21:13:10.287Z,1.60
2017-07-25T21:15:40.412Z,1.45
2017-07-25T21:18:10.437Z,2.00
2017-07-25T21:20:40.503Z,1.70
2017-07-25T21:23:10.245Z,1.60
2017-07-25T21:25:40.190Z,1.60
2017-07-25T21:28:10.218Z,1.55
2017-07-25T21:30:40.161Z,1.30
2017-07-25T21:33:10.017Z,2.03
2017-07-25T21:35:39.898Z,1.30
2017-07-25T21:38:09.992Z,1.30
2017-07-25T21:40:40.225Z,1.67
2017-07-25T21:43:10.084Z,1.60
2017-07-25T21:45:40.269Z,1.67
2017-07-25T21:48:10.124Z,1.60
2017-07-25T21:50:40.003Z,1.40
2017-07-25T21:53:10.005Z,1.25
2017-07-25T21:55:39.777Z,1.50
2017-07-25T21:58:09.854Z,1.50
2017-07-25T22:00:39.588Z,1.50
2017-07-25T22:03:34.336Z,1.12
2017-07-25T22:06:04.017Z,1.27
2017-07-25T22:08:33.422Z,1.50
2017-07-25T22:11:02.783Z,1.42
2017-07-25T22:13:32.350Z,1.30
2017-07-25T22:16:01.817Z,1.30
2017-07-25T22:18:31.301Z,1.33
2017-07-25T22:21:01.253Z,1.30
2017-07-25T22:23:30.785Z,1.37
2017-07-25T22:26:00.410Z,1.30
2017-07-25T22:28:29.796Z,1.60
2017-07-25T22:30:59.137Z,1.50
2017-07-25T22:33:28.880Z,1.30
2017-07-25T22:35:58.619Z,1.40
2017-07-25T22:38:28.215Z,1.40
2017-07-25T22:40:57.630Z,1.30
2017-07-25T22:43:26.892Z,1.27
2017-07-25T22:45:56.250Z,1.80
2017-07-25T22:48:25.655Z,1.45
2017-07-25T22:50:54.995Z,1.50
2017-07-25T22:53:24.402Z,1.80
2017-07-25T22:55:53.931Z,1.50
2017-07-25T22:58:23.296Z,1.40
2017-07-25T23:00:53.128Z,1.90
2017-07-25T23:03:22.650Z,1.77
2017-07-25T23:05:52.766Z,1.30
2017-07-25T23:08:22.437Z,1.25
2017-07-25T23:10:52.204Z,1.50
2017-07-25T23:13:21.616Z,1.30
2017-07-25T23:15:51.284Z,1.40
2017-07-25T23:18:20.807Z,1.50
2017-07-25T23:20:50.725Z,1.55
2017-07-25T23:23:19.984Z,1.48
2017-07-25T23:25:49.347Z,1.48
2017-07-25T23:28:18.722Z,1.40
2017-07-25T23:30:48.563Z,1.20
2017-07-25T23:33:18.067Z,1.45
2017-07-25T23:35:47.677Z,1.20
2017-07-25T23:38:17.133Z,1.10
2017-07-25T23:40:46.809Z,1.20
2017-07-25T23:43:16.256Z,1.90
2017-07-25T23:45:45.656Z,1.05
2017-07-25T23:48:15.202Z,1.20
2017-07-25T23:50:44.608Z,1.52
2017-07-25T23:53:13.955Z,1.10
2017-07-25T23:55:43.768Z,1.20
2017-07-25T23:58:13.659Z,1.00
